sensor_id;sensor_type;location;lat;lon;timestamp;P1;durP1;ratioP1;P2;durP2;ratioP2
16426;SDS011;8322;-33.900;151.170;2023-08-12T00:00:51;7.10;;;4.10;;
16426;SDS011;8322;-33.900;151.170;2023-08-12T00:03:20;7.70;;;4.40;;
16426;SDS011;8322;-33.900;151.170;2023-08-12T00:05:50;9.77;;;4.03;;
16426;SDS011;8322;-33.900;151.170;2023-08-12T00:08:19;8.52;;;4.03;;
16426;SDS011;8322;-33.900;151.170;2023-08-12T00:10:49;5.75;;;3.50;;
16426;SDS011;8322;-33.900;151.170;2023-08-12T00:13:18;4.47;;;2.97;;
16426;SDS011;8322;-33.900;151.170;2023-08-12T00:15:48;10.63;;;2.92;;
16426;SDS011;8322;-33.900;151.170;2023-08-12T00:18:19;4.53;;;3.00;;
16426;SDS011;8322;-33.900;151.170;2023-08-12T00:20:48;5.05;;;2.92;;
16426;SDS011;8322;-33.900;151.170;2023-08-12T00:23:18;6.75;;;3.00;;
16426;SDS011;8322;-33.900;151.170;2023-08-12T00:25:48;9.25;;;3.42;;
16426;SDS011;8322;-33.900;151.170;2023-08-12T00:28:18;9.90;;;3.72;;
16426;SDS011;8322;-33.900;151.170;2023-08-12T00:30:48;8.68;;;3.70;;
16426;SDS011;8322;-33.900;151.170;2023-08-12T00:33:19;9.35;;;4.60;;
16426;SDS011;8322;-33.900;151.170;2023-08-12T00:35:48;8.55;;;4.47;;
16426;SDS011;8322;-33.900;151.170;2023-08-12T00:38:18;6.22;;;3.45;;
16426;SDS011;8322;-33.900;151.170;2023-08-12T00:40:47;9.25;;;3.63;;
16426;SDS011;8322;-33.900;151.170;2023-08-12T00:43:17;7.43;;;3.10;;
16426;SDS011;8322;-33.900;151.170;2023-08-12T00:45:46;5.80;;;3.13;;
16426;SDS011;8322;-33.900;151.170;2023-08-12T00:48:17;8.95;;;5.03;;
16426;SDS011;8322;-33.900;151.170;2023-08-12T00:50:48;5.82;;;3.60;;
16426;SDS011;8322;-33.900;151.170;2023-08-12T00:53:18;5.53;;;3.15;;
16426;SDS011;8322;-33.900;151.170;2023-08-12T00:55:47;8.55;;;3.47;;
16426;SDS011;8322;-33.900;151.170;2023-08-12T00:58:17;5.28;;;3.10;;
16426;SDS011;8322;-33.900;151.170;2023-08-12T01:00:46;4.28;;;2.97;;
16426;SDS011;8322;-33.900;151.170;2023-08-12T01:03:16;5.35;;;2.97;;
16426;SDS011;8322;-33.900;151.170;2023-08-12T01:05:45;5.50;;;3.13;;
16426;SDS011;8322;-33.900;151.170;2023-08-12T01:08:17;6.35;;;3.50;;
16426;SDS011;8322;-33.900;151.170;2023-08-12T01:10:48;5.70;;;3.08;;
16426;SDS011;8322;-33.900;151.170;2023-08-12T01:13:24;4.38;;;2.88;;
16426;SDS011;8322;-33.900;151.170;2023-08-12T01:15:58;5.95;;;2.63;;
16426;SDS011;8322;-33.900;151.170;2023-08-12T01:18:30;5.30;;;3.28;;
16426;SDS011;8322;-33.900;151.170;2023-08-12T01:21:00;5.30;;;3.13;;
16426;SDS011;8322;-33.900;151.170;2023-08-12T01:23:32;7.28;;;3.63;;
16426;SDS011;8322;-33.900;151.170;2023-08-12T01:26:05;5.20;;;3.08;;
16426;SDS011;8322;-33.900;151.170;2023-08-12T01:28:34;6.28;;;3.35;;
16426;SDS011;8322;-33.900;151.170;2023-08-12T01:31:06;5.97;;;2.80;;
16426;SDS011;8322;-33.900;151.170;2023-08-12T01:33:39;6.65;;;3.20;;
16426;SDS011;8322;-33.900;151.170;2023-08-12T01:36:09;5.57;;;3.08;;
16426;SDS011;8322;-33.900;151.170;2023-08-12T01:38:43;6.18;;;3.10;;
16426;SDS011;8322;-33.900;151.170;2023-08-12T01:41:14;7.28;;;3.20;;
16426;SDS011;8322;-33.900;151.170;2023-08-12T01:43:44;8.80;;;3.10;;
16426;SDS011;8322;-33.900;151.170;2023-08-12T01:46:14;6.95;;;3.22;;
16426;SDS011;8322;-33.900;151.170;2023-08-12T01:48:44;5.93;;;2.88;;
16426;SDS011;8322;-33.900;151.170;2023-08-12T01:51:13;6.30;;;2.60;;
16426;SDS011;8322;-33.900;151.170;2023-08-12T01:53:44;5.07;;;3.03;;
16426;SDS011;8322;-33.900;151.170;2023-08-12T01:56:14;7.32;;;2.80;;
16426;SDS011;8322;-33.900;151.170;2023-08-12T01:58:43;9.05;;;2.80;;
16426;SDS011;8322;-33.900;151.170;2023-08-12T02:01:13;6.00;;;3.08;;
16426;SDS011;8322;-33.900;151.170;2023-08-12T02:03:42;4.82;;;2.30;;
16426;SDS011;8322;-33.900;151.170;2023-08-12T02:06:11;5.22;;;3.17;;
16426;SDS011;8322;-33.900;151.170;2023-08-12T02:08:41;6.40;;;2.15;;
16426;SDS011;8322;-33.900;151.170;2023-08-12T02:11:12;4.68;;;2.33;;
16426;SDS011;8322;-33.900;151.170;2023-08-12T02:13:41;4.03;;;2.28;;
16426;SDS011;8322;-33.900;151.170;2023-08-12T02:16:11;4.95;;;2.53;;
16426;SDS011;8322;-33.900;151.170;2023-08-12T02:18:42;4.35;;;2.28;;
16426;SDS011;8322;-33.900;151.170;2023-08-12T02:21:12;4.65;;;2.15;;
16426;SDS011;8322;-33.900;151.170;2023-08-12T02:23:41;5.68;;;2.40;;
16426;SDS011;8322;-33.900;151.170;2023-08-12T02:26:13;4.18;;;2.55;;
16426;SDS011;8322;-33.900;151.170;2023-08-12T02:28:42;5.28;;;2.50;;
16426;SDS011;8322;-33.900;151.170;2023-08-12T02:31:12;6.30;;;2.60;;
16426;SDS011;8322;-33.900;151.170;2023-08-12T02:33:41;4.57;;;2.20;;
16426;SDS011;8322;-33.900;151.170;2023-08-12T02:36:10;4.60;;;2.17;;
16426;SDS011;8322;-33.900;151.170;2023-08-12T02:38:40;5.57;;;2.72;;
16426;SDS011;8322;-33.900;151.170;2023-08-12T02:41:09;5.10;;;2.65;;
16426;SDS011;8322;-33.900;151.170;2023-08-12T02:43:41;4.97;;;3.00;;
16426;SDS011;8322;-33.900;151.170;2023-08-12T02:46:10;3.83;;;2.47;;
16426;SDS011;8322;-33.900;151.170;2023-08-12T02:48:41;4.53;;;2.80;;
16426;SDS011;8322;-33.900;151.170;2023-08-12T02:51:10;4.93;;;2.85;;
16426;SDS011;8322;-33.900;151.170;2023-08-12T02:53:40;4.18;;;2.42;;
16426;SDS011;8322;-33.900;151.170;2023-08-12T02:56:09;5.70;;;2.35;;
16426;SDS011;8322;-33.900;151.170;2023-08-12T02:58:40;5.20;;;2.08;;
16426;SDS011;8322;-33.900;151.170;2023-08-12T03:01:10;3.83;;;2.10;;
16426;SDS011;8322;-33.900;151.170;2023-08-12T03:03:39;4.25;;;2.00;;
16426;SDS011;8322;-33.900;151.170;2023-08-12T03:06:09;3.47;;;2.22;;
16426;SDS011;8322;-33.900;151.170;2023-08-12T03:08:38;4.78;;;2.50;;
16426;SDS011;8322;-33.900;151.170;2023-08-12T03:11:07;3.90;;;2.65;;
16426;SDS011;8322;-33.900;151.170;2023-08-12T03:13:37;4.82;;;2.78;;
16426;SDS011;8322;-33.900;151.170;2023-08-12T03:16:12;4.60;;;2.20;;
16426;SDS011;8322;-33.900;151.170;2023-08-12T03:18:42;3.25;;;1.70;;
16426;SDS011;8322;-33.900;151.170;2023-08-12T03:21:11;3.78;;;1.23;;
16426;SDS011;8322;-33.900;151.170;2023-08-12T03:23:41;2.88;;;1.67;;
16426;SDS011;8322;-33.900;151.170;2023-08-12T03:26:10;3.13;;;1.40;;
16426;SDS011;8322;-33.900;151.170;2023-08-12T03:28:40;2.42;;;1.60;;
16426;SDS011;8322;-33.900;151.170;2023-08-12T03:31:09;4.35;;;1.50;;
16426;SDS011;8322;-33.900;151.170;2023-08-12T03:33:41;3.28;;;1.63;;
16426;SDS011;8322;-33.900;151.170;2023-08-12T03:36:10;2.30;;;1.60;;
16426;SDS011;8322;-33.900;151.170;2023-08-12T03:38:39;1.90;;;1.27;;
16426;SDS011;8322;-33.900;151.170;2023-08-12T03:41:12;2.50;;;1.50;;
16426;SDS011;8322;-33.900;151.170;2023-08-12T03:43:41;4.20;;;1.90;;
16426;SDS011;8322;-33.900;151.170;2023-08-12T03:46:11;5.72;;;2.58;;
16426;SDS011;8322;-33.900;151.170;2023-08-12T03:51:29;4.30;;;2.05;;
16426;SDS011;8322;-33.900;151.170;2023-08-12T03:53:58;5.97;;;2.72;;
16426;SDS011;8322;-33.900;151.170;2023-08-12T03:56:28;5.32;;;2.78;;
16426;SDS011;8322;-33.900;151.170;2023-08-12T03:58:58;3.53;;;1.80;;
16426;SDS011;8322;-33.900;151.170;2023-08-12T04:01:27;4.53;;;2.50;;
16426;SDS011;8322;-33.900;151.170;2023-08-12T04:03:56;5.00;;;2.22;;
16426;SDS011;8322;-33.900;151.170;2023-08-12T04:06:26;5.60;;;2.20;;
16426;SDS011;8322;-33.900;151.170;2023-08-12T04:08:57;5.07;;;2.10;;
16426;SDS011;8322;-33.900;151.170;2023-08-12T04:11:27;6.00;;;2.58;;
16426;SDS011;8322;-33.900;151.170;2023-08-12T04:13:56;5.70;;;2.08;;
16426;SDS011;8322;-33.900;151.170;2023-08-12T04:16:25;6.40;;;4.20;;
16426;SDS011;8322;-33.900;151.170;2023-08-12T04:18:55;11.68;;;7.07;;
16426;SDS011;8322;-33.900;151.170;2023-08-12T04:21:24;9.52;;;6.47;;
16426;SDS011;8322;-33.900;151.170;2023-08-12T04:23:54;7.72;;;4.25;;
16426;SDS011;8322;-33.900;151.170;2023-08-12T04:26:25;4.13;;;2.30;;
16426;SDS011;8322;-33.900;151.170;2023-08-12T04:28:55;3.13;;;1.80;;
16426;SDS011;8322;-33.900;151.170;2023-08-12T04:31:24;3.28;;;1.75;;
16426;SDS011;8322;-33.900;151.170;2023-08-12T04:33:53;6.05;;;2.35;;
16426;SDS011;8322;-33.900;151.170;2023-08-12T04:36:23;3.85;;;1.70;;
16426;SDS011;8322;-33.900;151.170;2023-08-12T04:38:53;3.58;;;2.25;;
16426;SDS011;8322;-33.900;151.170;2023-08-12T04:41:22;9.15;;;7.00;;
16426;SDS011;8322;-33.900;151.170;2023-08-12T04:43:53;7.68;;;5.22;;
16426;SDS011;8322;-33.900;151.170;2023-08-12T04:46:23;7.97;;;4.72;;
16426;SDS011;8322;-33.900;151.170;2023-08-12T04:48:52;4.30;;;2.20;;
16426;SDS011;8322;-33.900;151.170;2023-08-12T04:51:22;2.95;;;1.77;;
16426;SDS011;8322;-33.900;151.170;2023-08-12T04:53:51;3.67;;;1.50;;
16426;SDS011;8322;-33.900;151.170;2023-08-12T04:56:21;3.28;;;1.60;;
16426;SDS011;8322;-33.900;151.170;2023-08-12T04:58:51;4.90;;;1.92;;
16426;SDS011;8322;-33.900;151.170;2023-08-12T05:01:22;3.72;;;1.63;;
16426;SDS011;8322;-33.900;151.170;2023-08-12T05:03:51;6.05;;;2.20;;
16426;SDS011;8322;-33.900;151.170;2023-08-12T05:06:21;25.85;;;17.75;;
16426;SDS011;8322;-33.900;151.170;2023-08-12T05:08:50;18.58;;;13.80;;
16426;SDS011;8322;-33.900;151.170;2023-08-12T05:11:20;5.75;;;3.63;;
16426;SDS011;8322;-33.900;151.170;2023-08-12T05:13:49;3.63;;;1.85;;
16426;SDS011;8322;-33.900;151.170;2023-08-12T05:16:19;4.38;;;1.67;;
16426;SDS011;8322;-33.900;151.170;2023-08-12T05:18:50;3.03;;;1.17;;
16426;SDS011;8322;-33.900;151.170;2023-08-12T05:21:19;3.90;;;1.33;;
16426;SDS011;8322;-33.900;151.170;2023-08-12T05:23:49;3.33;;;1.30;;
16426;SDS011;8322;-33.900;151.170;2023-08-12T05:26:18;4.20;;;1.27;;
16426;SDS011;8322;-33.900;151.170;2023-08-12T05:28:48;4.07;;;1.45;;
16426;SDS011;8322;-33.900;151.170;2023-08-12T05:31:17;5.45;;;1.30;;
16426;SDS011;8322;-33.900;151.170;2023-08-12T05:33:47;3.28;;;1.30;;
16426;SDS011;8322;-33.900;151.170;2023-08-12T05:36:18;5.95;;;1.63;;
16426;SDS011;8322;-33.900;151.170;2023-08-12T05:38:47;3.10;;;1.35;;
16426;SDS011;8322;-33.900;151.170;2023-08-12T05:41:17;4.72;;;1.50;;
16426;SDS011;8322;-33.900;151.170;2023-08-12T05:43:47;4.90;;;1.73;;
16426;SDS011;8322;-33.900;151.170;2023-08-12T05:46:16;3.80;;;1.52;;
16426;SDS011;8322;-33.900;151.170;2023-08-12T05:48:46;3.75;;;2.30;;
16426;SDS011;8322;-33.900;151.170;2023-08-12T05:51:15;6.22;;;2.30;;
16426;SDS011;8322;-33.900;151.170;2023-08-12T05:53:46;3.75;;;1.70;;
16426;SDS011;8322;-33.900;151.170;2023-08-12T05:56:16;4.53;;;2.42;;
16426;SDS011;8322;-33.900;151.170;2023-08-12T05:58:45;4.82;;;1.67;;
16426;SDS011;8322;-33.900;151.170;2023-08-12T06:01:15;3.00;;;2.08;;
16426;SDS011;8322;-33.900;151.170;2023-08-12T06:03:44;4.22;;;1.63;;
16426;SDS011;8322;-33.900;151.170;2023-08-12T06:06:14;4.82;;;2.05;;
16426;SDS011;8322;-33.900;151.170;2023-08-12T06:08:43;4.93;;;1.90;;
16426;SDS011;8322;-33.900;151.170;2023-08-12T06:11:14;7.18;;;2.22;;
16426;SDS011;8322;-33.900;151.170;2023-08-12T06:13:44;8.10;;;2.10;;
16426;SDS011;8322;-33.900;151.170;2023-08-12T06:16:13;5.20;;;1.83;;
16426;SDS011;8322;-33.900;151.170;2023-08-12T06:18:43;4.10;;;1.95;;
16426;SDS011;8322;-33.900;151.170;2023-08-12T06:21:12;4.50;;;2.10;;
16426;SDS011;8322;-33.900;151.170;2023-08-12T06:23:42;4.70;;;2.33;;
16426;SDS011;8322;-33.900;151.170;2023-08-12T06:26:11;7.18;;;1.95;;
16426;SDS011;8322;-33.900;151.170;2023-08-12T06:28:42;4.00;;;1.70;;
16426;SDS011;8322;-33.900;151.170;2023-08-12T06:31:12;2.50;;;1.77;;
16426;SDS011;8322;-33.900;151.170;2023-08-12T06:36:29;5.05;;;1.50;;
16426;SDS011;8322;-33.900;151.170;2023-08-12T06:38:58;2.85;;;1.58;;
16426;SDS011;8322;-33.900;151.170;2023-08-12T06:41:28;4.20;;;1.98;;
16426;SDS011;8322;-33.900;151.170;2023-08-12T06:43:59;3.40;;;2.08;;
16426;SDS011;8322;-33.900;151.170;2023-08-12T06:46:30;6.03;;;1.90;;
16426;SDS011;8322;-33.900;151.170;2023-08-12T06:48:59;4.97;;;1.60;;
16426;SDS011;8322;-33.900;151.170;2023-08-12T06:51:29;4.32;;;2.05;;
16426;SDS011;8322;-33.900;151.170;2023-08-12T06:53:58;4.75;;;1.52;;
16426;SDS011;8322;-33.900;151.170;2023-08-12T06:56:28;4.85;;;1.70;;
16426;SDS011;8322;-33.900;151.170;2023-08-12T06:58:59;3.80;;;1.80;;
16426;SDS011;8322;-33.900;151.170;2023-08-12T07:01:28;4.50;;;1.85;;
16426;SDS011;8322;-33.900;151.170;2023-08-12T07:03:58;6.05;;;1.60;;
16426;SDS011;8322;-33.900;151.170;2023-08-12T07:06:27;5.32;;;2.28;;
16426;SDS011;8322;-33.900;151.170;2023-08-12T07:08:57;3.15;;;1.60;;
16426;SDS011;8322;-33.900;151.170;2023-08-12T07:11:26;5.32;;;1.63;;
16426;SDS011;8322;-33.900;151.170;2023-08-12T07:13:56;5.40;;;1.20;;
16426;SDS011;8322;-33.900;151.170;2023-08-12T07:16:30;5.30;;;1.83;;
16426;SDS011;8322;-33.900;151.170;2023-08-12T07:18:59;4.03;;;1.50;;
16426;SDS011;8322;-33.900;151.170;2023-08-12T07:21:29;5.00;;;1.80;;
16426;SDS011;8322;-33.900;151.170;2023-08-12T07:23:58;4.32;;;1.40;;
16426;SDS011;8322;-33.900;151.170;2023-08-12T07:26:28;6.20;;;1.63;;
16426;SDS011;8322;-33.900;151.170;2023-08-12T07:28:57;5.35;;;1.55;;
16426;SDS011;8322;-33.900;151.170;2023-08-12T07:31:27;3.83;;;1.60;;
16426;SDS011;8322;-33.900;151.170;2023-08-12T07:33:58;3.72;;;1.33;;
16426;SDS011;8322;-33.900;151.170;2023-08-12T07:36:28;3.45;;;1.50;;
16426;SDS011;8322;-33.900;151.170;2023-08-12T07:38:57;2.08;;;1.50;;
16426;SDS011;8322;-33.900;151.170;2023-08-12T07:41:26;3.90;;;1.50;;
16426;SDS011;8322;-33.900;151.170;2023-08-12T07:43:56;4.38;;;1.40;;
16426;SDS011;8322;-33.900;151.170;2023-08-12T07:46:25;3.03;;;1.52;;
16426;SDS011;8322;-33.900;151.170;2023-08-12T07:48:55;5.80;;;1.83;;
16426;SDS011;8322;-33.900;151.170;2023-08-12T07:51:26;5.00;;;1.60;;
16426;SDS011;8322;-33.900;151.170;2023-08-12T07:53:56;5.10;;;1.80;;
16426;SDS011;8322;-33.900;151.170;2023-08-12T07:56:25;3.72;;;1.67;;
16426;SDS011;8322;-33.900;151.170;2023-08-12T07:58:55;5.38;;;1.65;;
16426;SDS011;8322;-33.900;151.170;2023-08-12T08:01:24;2.75;;;1.40;;
16426;SDS011;8322;-33.900;151.170;2023-08-12T08:03:54;3.55;;;1.80;;
16426;SDS011;8322;-33.900;151.170;2023-08-12T08:06:23;4.20;;;1.73;;
16426;SDS011;8322;-33.900;151.170;2023-08-12T08:08:55;2.85;;;2.00;;
16426;SDS011;8322;-33.900;151.170;2023-08-12T08:11:24;4.63;;;2.38;;
16426;SDS011;8322;-33.900;151.170;2023-08-12T08:13:54;4.97;;;2.35;;
16426;SDS011;8322;-33.900;151.170;2023-08-12T08:16:23;4.05;;;2.15;;
16426;SDS011;8322;-33.900;151.170;2023-08-12T08:18:53;4.43;;;2.20;;
16426;SDS011;8322;-33.900;151.170;2023-08-12T08:21:22;4.90;;;2.20;;
16426;SDS011;8322;-33.900;151.170;2023-08-12T08:23:52;4.60;;;2.13;;
16426;SDS011;8322;-33.900;151.170;2023-08-12T08:26:23;3.95;;;2.25;;
16426;SDS011;8322;-33.900;151.170;2023-08-12T08:28:53;4.28;;;2.40;;
16426;SDS011;8322;-33.900;151.170;2023-08-12T08:34:09;6.45;;;2.60;;
16426;SDS011;8322;-33.900;151.170;2023-08-12T08:36:39;4.00;;;2.45;;
16426;SDS011;8322;-33.900;151.170;2023-08-12T08:39:08;4.78;;;2.50;;
16426;SDS011;8322;-33.900;151.170;2023-08-12T08:41:40;3.80;;;2.10;;
16426;SDS011;8322;-33.900;151.170;2023-08-12T08:44:09;4.57;;;2.20;;
16426;SDS011;8322;-33.900;151.170;2023-08-12T08:46:40;5.90;;;2.67;;
16426;SDS011;8322;-33.900;151.170;2023-08-12T08:49:10;3.58;;;2.50;;
16426;SDS011;8322;-33.900;151.170;2023-08-12T08:51:41;6.13;;;2.10;;
16426;SDS011;8322;-33.900;151.170;2023-08-12T08:54:10;5.65;;;2.10;;
16426;SDS011;8322;-33.900;151.170;2023-08-12T08:56:42;7.05;;;2.50;;
16426;SDS011;8322;-33.900;151.170;2023-08-12T08:59:12;4.18;;;2.50;;
16426;SDS011;8322;-33.900;151.170;2023-08-12T09:01:41;4.30;;;2.40;;
16426;SDS011;8322;-33.900;151.170;2023-08-12T09:04:11;6.97;;;2.80;;
16426;SDS011;8322;-33.900;151.170;2023-08-12T09:06:40;4.13;;;2.70;;
16426;SDS011;8322;-33.900;151.170;2023-08-12T09:09:10;7.25;;;2.83;;
16426;SDS011;8322;-33.900;151.170;2023-08-12T09:11:43;4.18;;;2.50;;
16426;SDS011;8322;-33.900;151.170;2023-08-12T09:14:13;4.63;;;2.40;;
16426;SDS011;8322;-33.900;151.170;2023-08-12T09:16:42;5.20;;;2.90;;
16426;SDS011;8322;-33.900;151.170;2023-08-12T09:19:12;4.40;;;2.65;;
16426;SDS011;8322;-33.900;151.170;2023-08-12T09:21:42;6.00;;;2.55;;
16426;SDS011;8322;-33.900;151.170;2023-08-12T09:24:11;4.88;;;2.90;;
16426;SDS011;8322;-33.900;151.170;2023-08-12T09:26:43;5.50;;;2.65;;
16426;SDS011;8322;-33.900;151.170;2023-08-12T09:29:13;8.35;;;3.53;;
16426;SDS011;8322;-33.900;151.170;2023-08-12T09:31:42;6.07;;;3.40;;
16426;SDS011;8322;-33.900;151.170;2023-08-12T09:34:12;5.88;;;2.80;;
16426;SDS011;8322;-33.900;151.170;2023-08-12T09:36:41;5.85;;;2.90;;
16426;SDS011;8322;-33.900;151.170;2023-08-12T09:39:12;7.13;;;2.78;;
16426;SDS011;8322;-33.900;151.170;2023-08-12T09:41:43;6.25;;;3.10;;
16426;SDS011;8322;-33.900;151.170;2023-08-12T09:44:13;5.10;;;3.08;;
16426;SDS011;8322;-33.900;151.170;2023-08-12T09:46:43;6.93;;;3.50;;
16426;SDS011;8322;-33.900;151.170;2023-08-12T09:49:12;8.85;;;4.40;;
16426;SDS011;8322;-33.900;151.170;2023-08-12T09:51:42;8.88;;;4.35;;
16426;SDS011;8322;-33.900;151.170;2023-08-12T09:54:11;7.72;;;4.53;;
16426;SDS011;8322;-33.900;151.170;2023-08-12T09:56:41;8.70;;;4.40;;
16426;SDS011;8322;-33.900;151.170;2023-08-12T09:59:12;9.35;;;5.82;;
16426;SDS011;8322;-33.900;151.170;2023-08-12T10:01:44;13.07;;;6.75;;
16426;SDS011;8322;-33.900;151.170;2023-08-12T10:04:13;10.55;;;5.82;;
16426;SDS011;8322;-33.900;151.170;2023-08-12T10:06:44;7.88;;;5.38;;
16426;SDS011;8322;-33.900;151.170;2023-08-12T10:09:13;10.52;;;5.47;;
16426;SDS011;8322;-33.900;151.170;2023-08-12T10:11:45;12.27;;;6.32;;
16426;SDS011;8322;-33.900;151.170;2023-08-12T10:14:16;12.55;;;6.78;;
16426;SDS011;8322;-33.900;151.170;2023-08-12T10:16:47;9.80;;;5.88;;
16426;SDS011;8322;-33.900;151.170;2023-08-12T10:19:17;12.57;;;6.72;;
16426;SDS011;8322;-33.900;151.170;2023-08-12T10:21:48;14.45;;;8.68;;
16426;SDS011;8322;-33.900;151.170;2023-08-12T10:24:19;22.17;;;13.73;;
16426;SDS011;8322;-33.900;151.170;2023-08-12T10:26:49;17.58;;;9.57;;
16426;SDS011;8322;-33.900;151.170;2023-08-12T10:32:07;10.80;;;7.05;;
16426;SDS011;8322;-33.900;151.170;2023-08-12T10:34:37;10.60;;;6.70;;
16426;SDS011;8322;-33.900;151.170;2023-08-12T10:37:06;11.13;;;6.55;;
16426;SDS011;8322;-33.900;151.170;2023-08-12T10:39:39;13.85;;;6.88;;
16426;SDS011;8322;-33.900;151.170;2023-08-12T10:42:09;13.52;;;7.00;;
16426;SDS011;8322;-33.900;151.170;2023-08-12T10:44:49;14.60;;;7.63;;
16426;SDS011;8322;-33.900;151.170;2023-08-12T10:47:20;20.95;;;9.63;;
16426;SDS011;8322;-33.900;151.170;2023-08-12T10:49:50;12.55;;;7.10;;
16426;SDS011;8322;-33.900;151.170;2023-08-12T10:52:28;10.63;;;6.20;;
16426;SDS011;8322;-33.900;151.170;2023-08-12T10:57:41;7.07;;;4.10;;
16426;SDS011;8322;-33.900;151.170;2023-08-12T11:00:11;8.20;;;4.22;;
16426;SDS011;8322;-33.900;151.170;2023-08-12T11:02:48;8.05;;;4.25;;
16426;SDS011;8322;-33.900;151.170;2023-08-12T11:05:18;8.63;;;4.30;;
16426;SDS011;8322;-33.900;151.170;2023-08-12T11:07:48;8.15;;;4.75;;
16426;SDS011;8322;-33.900;151.170;2023-08-12T11:10:18;10.00;;;6.40;;
16426;SDS011;8322;-33.900;151.170;2023-08-12T11:12:52;10.77;;;5.80;;
16426;SDS011;8322;-33.900;151.170;2023-08-12T11:15:30;8.10;;;5.30;;
16426;SDS011;8322;-33.900;151.170;2023-08-12T11:18:03;9.77;;;5.65;;
16426;SDS011;8322;-33.900;151.170;2023-08-12T11:20:33;9.82;;;5.35;;
16426;SDS011;8322;-33.900;151.170;2023-08-12T11:23:03;11.00;;;5.45;;
16426;SDS011;8322;-33.900;151.170;2023-08-12T11:25:33;8.18;;;4.18;;
16426;SDS011;8322;-33.900;151.170;2023-08-12T11:28:04;7.10;;;4.13;;
16426;SDS011;8322;-33.900;151.170;2023-08-12T11:30:33;8.15;;;4.00;;
16426;SDS011;8322;-33.900;151.170;2023-08-12T11:33:05;6.85;;;4.15;;
16426;SDS011;8322;-33.900;151.170;2023-08-12T11:35:34;6.97;;;3.83;;
16426;SDS011;8322;-33.900;151.170;2023-08-12T11:38:04;7.47;;;3.97;;
16426;SDS011;8322;-33.900;151.170;2023-08-12T11:40:34;8.10;;;3.95;;
16426;SDS011;8322;-33.900;151.170;2023-08-12T11:43:04;6.45;;;3.72;;
16426;SDS011;8322;-33.900;151.170;2023-08-12T11:45:33;9.85;;;3.72;;
16426;SDS011;8322;-33.900;151.170;2023-08-12T11:48:06;6.72;;;3.35;;
16426;SDS011;8322;-33.900;151.170;2023-08-12T11:50:36;6.25;;;3.20;;
16426;SDS011;8322;-33.900;151.170;2023-08-12T11:53:05;5.20;;;3.10;;
16426;SDS011;8322;-33.900;151.170;2023-08-12T11:55:35;5.68;;;3.10;;
16426;SDS011;8322;-33.900;151.170;2023-08-12T11:58:05;6.07;;;3.50;;
16426;SDS011;8322;-33.900;151.170;2023-08-12T12:00:35;5.45;;;2.92;;
16426;SDS011;8322;-33.900;151.170;2023-08-12T12:03:06;7.85;;;3.10;;
16426;SDS011;8322;-33.900;151.170;2023-08-12T12:05:36;4.80;;;2.80;;
16426;SDS011;8322;-33.900;151.170;2023-08-12T12:08:05;6.07;;;2.70;;
16426;SDS011;8322;-33.900;151.170;2023-08-12T12:10:36;4.05;;;2.63;;
16426;SDS011;8322;-33.900;151.170;2023-08-12T12:13:05;4.65;;;2.60;;
16426;SDS011;8322;-33.900;151.170;2023-08-12T12:15:38;5.03;;;2.60;;
16426;SDS011;8322;-33.900;151.170;2023-08-12T12:18:11;4.90;;;2.40;;
16426;SDS011;8322;-33.900;151.170;2023-08-12T12:20:56;5.72;;;2.33;;
16426;SDS011;8322;-33.900;151.170;2023-08-12T12:23:29;5.72;;;2.60;;
16426;SDS011;8322;-33.900;151.170;2023-08-12T12:26:00;4.28;;;2.70;;
16426;SDS011;8322;-33.900;151.170;2023-08-12T12:28:30;5.03;;;2.47;;
16426;SDS011;8322;-33.900;151.170;2023-08-12T12:30:59;7.03;;;2.63;;
16426;SDS011;8322;-33.900;151.170;2023-08-12T12:33:31;4.80;;;2.35;;
16426;SDS011;8322;-33.900;151.170;2023-08-12T12:36:00;6.88;;;2.80;;
16426;SDS011;8322;-33.900;151.170;2023-08-12T12:38:30;6.50;;;2.88;;
16426;SDS011;8322;-33.900;151.170;2023-08-12T12:40:59;4.63;;;2.70;;
16426;SDS011;8322;-33.900;151.170;2023-08-12T12:43:29;5.70;;;2.80;;
16426;SDS011;8322;-33.900;151.170;2023-08-12T12:45:58;4.82;;;2.70;;
16426;SDS011;8322;-33.900;151.170;2023-08-12T12:48:27;7.40;;;2.75;;
16426;SDS011;8322;-33.900;151.170;2023-08-12T12:50:59;4.80;;;3.05;;
16426;SDS011;8322;-33.900;151.170;2023-08-12T12:53:28;5.30;;;2.72;;
16426;SDS011;8322;-33.900;151.170;2023-08-12T12:55:58;4.47;;;2.17;;
16426;SDS011;8322;-33.900;151.170;2023-08-12T12:58:30;5.00;;;2.33;;
16426;SDS011;8322;-33.900;151.170;2023-08-12T13:01:00;8.15;;;3.88;;
16426;SDS011;8322;-33.900;151.170;2023-08-12T13:03:30;6.00;;;3.53;;
16426;SDS011;8322;-33.900;151.170;2023-08-12T13:06:01;6.68;;;3.50;;
16426;SDS011;8322;-33.900;151.170;2023-08-12T13:08:30;8.27;;;3.75;;
16426;SDS011;8322;-33.900;151.170;2023-08-12T13:11:00;7.00;;;2.92;;
16426;SDS011;8322;-33.900;151.170;2023-08-12T13:13:29;5.53;;;2.90;;
16426;SDS011;8322;-33.900;151.170;2023-08-12T13:15:59;5.60;;;2.60;;
16426;SDS011;8322;-33.900;151.170;2023-08-12T13:18:28;5.60;;;2.50;;
16426;SDS011;8322;-33.900;151.170;2023-08-12T13:20:58;7.28;;;2.13;;
16426;SDS011;8322;-33.900;151.170;2023-08-12T13:23:29;4.70;;;2.38;;
16426;SDS011;8322;-33.900;151.170;2023-08-12T13:25:58;6.88;;;2.22;;
16426;SDS011;8322;-33.900;151.170;2023-08-12T13:28:28;3.72;;;2.30;;
16426;SDS011;8322;-33.900;151.170;2023-08-12T13:30:58;7.25;;;2.80;;
16426;SDS011;8322;-33.900;151.170;2023-08-12T13:33:27;4.68;;;2.45;;
16426;SDS011;8322;-33.900;151.170;2023-08-12T13:35:57;4.38;;;2.38;;
16426;SDS011;8322;-33.900;151.170;2023-08-12T13:38:26;5.78;;;2.65;;
16426;SDS011;8322;-33.900;151.170;2023-08-12T13:40:57;4.05;;;2.20;;
16426;SDS011;8322;-33.900;151.170;2023-08-12T13:43:27;4.65;;;2.25;;
16426;SDS011;8322;-33.900;151.170;2023-08-12T13:45:56;3.80;;;2.20;;
16426;SDS011;8322;-33.900;151.170;2023-08-12T13:48:26;6.35;;;2.83;;
16426;SDS011;8322;-33.900;151.170;2023-08-12T13:50:55;5.28;;;2.30;;
16426;SDS011;8322;-33.900;151.170;2023-08-12T13:53:25;5.82;;;2.50;;
16426;SDS011;8322;-33.900;151.170;2023-08-12T13:55:54;7.35;;;2.85;;
16426;SDS011;8322;-33.900;151.170;2023-08-12T13:58:25;7.55;;;4.13;;
16426;SDS011;8322;-33.900;151.170;2023-08-12T14:00:55;10.10;;;5.03;;
16426;SDS011;8322;-33.900;151.170;2023-08-12T14:03:24;8.98;;;5.00;;
16426;SDS011;8322;-33.900;151.170;2023-08-12T14:05:54;9.23;;;4.47;;
16426;SDS011;8322;-33.900;151.170;2023-08-12T14:08:24;7.60;;;4.65;;
16426;SDS011;8322;-33.900;151.170;2023-08-12T14:10:53;6.75;;;3.90;;
16426;SDS011;8322;-33.900;151.170;2023-08-12T14:13:22;9.27;;;3.80;;
16426;SDS011;8322;-33.900;151.170;2023-08-12T14:15:54;8.98;;;4.45;;
16426;SDS011;8322;-33.900;151.170;2023-08-12T14:18:24;9.75;;;4.60;;
16426;SDS011;8322;-33.900;151.170;2023-08-12T14:20:53;10.63;;;5.40;;
16426;SDS011;8322;-33.900;151.170;2023-08-12T14:23:23;8.23;;;3.88;;
16426;SDS011;8322;-33.900;151.170;2023-08-12T14:25:52;9.38;;;5.03;;
16426;SDS011;8322;-33.900;151.170;2023-08-12T14:28:22;9.95;;;5.20;;
16426;SDS011;8322;-33.900;151.170;2023-08-12T14:30:51;11.27;;;5.40;;
16426;SDS011;8322;-33.900;151.170;2023-08-12T14:33:22;11.23;;;5.00;;
16426;SDS011;8322;-33.900;151.170;2023-08-12T14:35:52;10.70;;;5.05;;
16426;SDS011;8322;-33.900;151.170;2023-08-12T14:38:21;7.85;;;4.65;;
16426;SDS011;8322;-33.900;151.170;2023-08-12T14:40:51;9.35;;;4.85;;
16426;SDS011;8322;-33.900;151.170;2023-08-12T14:43:20;8.48;;;5.10;;
16426;SDS011;8322;-33.900;151.170;2023-08-12T14:45:50;8.40;;;4.60;;
16426;SDS011;8322;-33.900;151.170;2023-08-12T14:48:19;9.63;;;4.68;;
16426;SDS011;8322;-33.900;151.170;2023-08-12T14:50:50;8.25;;;4.28;;